Disclaimer

Please do not use the information listed here in-flight or in-navigation, as they are not provided to us by the airports but are provided by volunteers, so they might be outdated.

Search


Regions


Airport information page

Radio informations:
Melbourne Center - 126.0 MHz
Common traffic adv. frequency (CTAF) - 126.7 MHz

Airport informations:
Latitude: 34° 42' 08.00" S
Longitude: 146° 30' 44.00" E
Elevation: 474 feet - 144 meters
Operating hours: N/A
Operating agency: Civil government, landing fees and diplomatic clearance may be required
Timezone: UTC+10(+11DT)
Fuel: Jet A1, without icing nhibitor.

100/130 MIL Spec, low lead, aviation gasoline (BLUE)

Runway information:
05/23 - 3346 x 98 feet< - >1020 x 30 meters
14/32 - 5302 x 98 feet< - >1616 x 30 meters

Recent METARs:
YNAR 142100Z AUTO 21008KT //// // ////// 16/12 Q1019
YNAR 142100Z AUTO 21008KT //// // ////// 16/12 Q1019
YNAR 142200Z AUTO 22007KT //// // ////// 17/12 Q1020

Airport on the map: